sensor_id;sensor_type;location;lat;lon;timestamp;P1;durP1;ratioP1;P2;durP2;ratioP2
4563;SDS011;2294;51.818;8.484;2023-05-10T00:00:33;13.67;;;10.30;;
4563;SDS011;2294;51.818;8.484;2023-05-10T00:03:00;13.57;;;10.70;;
4563;SDS011;2294;51.818;8.484;2023-05-10T00:05:29;14.60;;;11.00;;
4563;SDS011;2294;51.818;8.484;2023-05-10T00:07:57;14.53;;;10.70;;
4563;SDS011;2294;51.818;8.484;2023-05-10T00:10:24;13.83;;;10.10;;
4563;SDS011;2294;51.818;8.484;2023-05-10T00:12:51;13.80;;;10.50;;
4563;SDS011;2294;51.818;8.484;2023-05-10T00:15:18;15.60;;;11.80;;
4563;SDS011;2294;51.818;8.484;2023-05-10T00:17:45;16.30;;;11.50;;
4563;SDS011;2294;51.818;8.484;2023-05-10T00:20:12;14.53;;;11.20;;
4563;SDS011;2294;51.818;8.484;2023-05-10T00:22:38;15.93;;;11.60;;
4563;SDS011;2294;51.818;8.484;2023-05-10T00:25:08;15.37;;;11.23;;
4563;SDS011;2294;51.818;8.484;2023-05-10T00:27:35;17.33;;;11.73;;
4563;SDS011;2294;51.818;8.484;2023-05-10T00:30:02;17.57;;;12.13;;
4563;SDS011;2294;51.818;8.484;2023-05-10T00:32:29;17.87;;;10.53;;
4563;SDS011;2294;51.818;8.484;2023-05-10T00:34:56;16.20;;;11.37;;
4563;SDS011;2294;51.818;8.484;2023-05-10T00:37:23;15.17;;;10.63;;
4563;SDS011;2294;51.818;8.484;2023-05-10T00:39:50;17.00;;;12.07;;
4563;SDS011;2294;51.818;8.484;2023-05-10T00:42:18;16.97;;;11.33;;
4563;SDS011;2294;51.818;8.484;2023-05-10T00:44:45;16.57;;;11.50;;
4563;SDS011;2294;51.818;8.484;2023-05-10T00:47:12;19.07;;;12.33;;
4563;SDS011;2294;51.818;8.484;2023-05-10T00:49:39;25.33;;;12.83;;
4563;SDS011;2294;51.818;8.484;2023-05-10T00:52:07;15.30;;;12.53;;
4563;SDS011;2294;51.818;8.484;2023-05-10T00:54:34;18.07;;;12.17;;
4563;SDS011;2294;51.818;8.484;2023-05-10T00:57:02;17.70;;;12.73;;
4563;SDS011;2294;51.818;8.484;2023-05-10T00:59:30;17.17;;;11.90;;
4563;SDS011;2294;51.818;8.484;2023-05-10T01:01:57;17.93;;;13.87;;
4563;SDS011;2294;51.818;8.484;2023-05-10T01:04:24;17.73;;;13.20;;
4563;SDS011;2294;51.818;8.484;2023-05-10T01:06:51;18.07;;;13.77;;
4563;SDS011;2294;51.818;8.484;2023-05-10T01:09:18;16.47;;;12.50;;
4563;SDS011;2294;51.818;8.484;2023-05-10T01:11:45;22.10;;;13.93;;
4563;SDS011;2294;51.818;8.484;2023-05-10T01:14:13;16.07;;;12.47;;
4563;SDS011;2294;51.818;8.484;2023-05-10T01:16:45;18.20;;;13.10;;
4563;SDS011;2294;51.818;8.484;2023-05-10T01:19:16;17.23;;;12.97;;
4563;SDS011;2294;51.818;8.484;2023-05-10T01:21:48;19.57;;;13.70;;
4563;SDS011;2294;51.818;8.484;2023-05-10T01:27:41;20.93;;;14.53;;
4563;SDS011;2294;51.818;8.484;2023-05-10T01:30:30;22.07;;;14.93;;
4563;SDS011;2294;51.818;8.484;2023-05-10T01:33:26;18.60;;;13.10;;
4563;SDS011;2294;51.818;8.484;2023-05-10T01:35:59;16.80;;;12.43;;
4563;SDS011;2294;51.818;8.484;2023-05-10T01:38:33;17.57;;;12.07;;
4563;SDS011;2294;51.818;8.484;2023-05-10T01:41:08;16.80;;;12.83;;
4563;SDS011;2294;51.818;8.484;2023-05-10T01:43:42;19.67;;;14.17;;
4563;SDS011;2294;51.818;8.484;2023-05-10T01:46:16;18.33;;;13.50;;
4563;SDS011;2294;51.818;8.484;2023-05-10T01:48:48;17.73;;;11.87;;
4563;SDS011;2294;51.818;8.484;2023-05-10T01:51:21;13.10;;;9.50;;
4563;SDS011;2294;51.818;8.484;2023-05-10T01:53:51;11.93;;;9.10;;
4563;SDS011;2294;51.818;8.484;2023-05-10T01:56:24;10.30;;;7.13;;
4563;SDS011;2294;51.818;8.484;2023-05-10T01:58:52;9.03;;;6.60;;
4563;SDS011;2294;51.818;8.484;2023-05-10T02:01:20;9.13;;;6.60;;
4563;SDS011;2294;51.818;8.484;2023-05-10T02:03:50;7.50;;;6.10;;
4563;SDS011;2294;51.818;8.484;2023-05-10T02:06:18;6.60;;;5.47;;
4563;SDS011;2294;51.818;8.484;2023-05-10T02:08:46;6.43;;;4.67;;
4563;SDS011;2294;51.818;8.484;2023-05-10T02:11:16;7.33;;;5.47;;
4563;SDS011;2294;51.818;8.484;2023-05-10T02:13:46;11.23;;;5.10;;
4563;SDS011;2294;51.818;8.484;2023-05-10T02:16:15;12.23;;;5.13;;
4563;SDS011;2294;51.818;8.484;2023-05-10T02:18:43;6.60;;;5.20;;
4563;SDS011;2294;51.818;8.484;2023-05-10T02:21:12;6.27;;;4.93;;
4563;SDS011;2294;51.818;8.484;2023-05-10T02:23:41;5.60;;;4.10;;
4563;SDS011;2294;51.818;8.484;2023-05-10T02:26:09;5.53;;;4.47;;
4563;SDS011;2294;51.818;8.484;2023-05-10T02:28:38;7.80;;;4.23;;
4563;SDS011;2294;51.818;8.484;2023-05-10T02:31:06;8.60;;;6.60;;
4563;SDS011;2294;51.818;8.484;2023-05-10T02:33:35;11.13;;;6.90;;
4563;SDS011;2294;51.818;8.484;2023-05-10T02:36:05;17.03;;;8.47;;
4563;SDS011;2294;51.818;8.484;2023-05-10T02:38:37;13.97;;;7.90;;
4563;SDS011;2294;51.818;8.484;2023-05-10T02:41:05;16.20;;;8.30;;
4563;SDS011;2294;51.818;8.484;2023-05-10T02:43:34;12.70;;;9.27;;
4563;SDS011;2294;51.818;8.484;2023-05-10T02:46:02;12.40;;;7.77;;
4563;SDS011;2294;51.818;8.484;2023-05-10T02:48:29;13.87;;;7.43;;
4563;SDS011;2294;51.818;8.484;2023-05-10T02:50:57;11.93;;;8.50;;
4563;SDS011;2294;51.818;8.484;2023-05-10T02:53:29;12.27;;;7.80;;
4563;SDS011;2294;51.818;8.484;2023-05-10T02:56:00;10.43;;;7.33;;
4563;SDS011;2294;51.818;8.484;2023-05-10T02:58:38;14.77;;;7.40;;
4563;SDS011;2294;51.818;8.484;2023-05-10T03:01:05;12.93;;;8.27;;
4563;SDS011;2294;51.818;8.484;2023-05-10T03:03:32;11.83;;;8.43;;
4563;SDS011;2294;51.818;8.484;2023-05-10T03:05:59;10.83;;;7.87;;
4563;SDS011;2294;51.818;8.484;2023-05-10T03:08:26;12.13;;;7.60;;
4563;SDS011;2294;51.818;8.484;2023-05-10T03:10:57;10.17;;;7.63;;
4563;SDS011;2294;51.818;8.484;2023-05-10T03:13:36;10.27;;;7.30;;
4563;SDS011;2294;51.818;8.484;2023-05-10T03:16:12;11.23;;;7.43;;
4563;SDS011;2294;51.818;8.484;2023-05-10T03:18:43;10.20;;;7.40;;
4563;SDS011;2294;51.818;8.484;2023-05-10T03:21:14;9.90;;;7.43;;
4563;SDS011;2294;51.818;8.484;2023-05-10T03:23:45;8.50;;;7.17;;
4563;SDS011;2294;51.818;8.484;2023-05-10T03:26:20;10.33;;;7.77;;
4563;SDS011;2294;51.818;8.484;2023-05-10T03:28:50;7.60;;;5.83;;
4563;SDS011;2294;51.818;8.484;2023-05-10T03:31:18;10.70;;;7.77;;
4563;SDS011;2294;51.818;8.484;2023-05-10T03:33:45;8.50;;;7.03;;
4563;SDS011;2294;51.818;8.484;2023-05-10T03:36:13;9.73;;;6.70;;
4563;SDS011;2294;51.818;8.484;2023-05-10T03:38:41;7.60;;;6.10;;
4563;SDS011;2294;51.818;8.484;2023-05-10T03:41:07;8.47;;;6.40;;
4563;SDS011;2294;51.818;8.484;2023-05-10T03:43:36;13.27;;;7.70;;
4563;SDS011;2294;51.818;8.484;2023-05-10T03:46:04;10.97;;;7.30;;
4563;SDS011;2294;51.818;8.484;2023-05-10T03:48:31;8.53;;;6.20;;
4563;SDS011;2294;51.818;8.484;2023-05-10T03:50:59;7.33;;;5.50;;
4563;SDS011;2294;51.818;8.484;2023-05-10T03:53:26;7.73;;;5.20;;
4563;SDS011;2294;51.818;8.484;2023-05-10T03:55:52;7.30;;;5.17;;
4563;SDS011;2294;51.818;8.484;2023-05-10T03:58:19;8.40;;;5.33;;
4563;SDS011;2294;51.818;8.484;2023-05-10T04:00:48;6.60;;;4.10;;
4563;SDS011;2294;51.818;8.484;2023-05-10T04:03:15;6.10;;;4.40;;
4563;SDS011;2294;51.818;8.484;2023-05-10T04:05:42;6.60;;;4.00;;
4563;SDS011;2294;51.818;8.484;2023-05-10T04:08:09;3.37;;;2.70;;
4563;SDS011;2294;51.818;8.484;2023-05-10T04:10:35;1.87;;;1.50;;
4563;SDS011;2294;51.818;8.484;2023-05-10T04:13:02;5.17;;;3.03;;
4563;SDS011;2294;51.818;8.484;2023-05-10T04:15:29;2.73;;;2.27;;
4563;SDS011;2294;51.818;8.484;2023-05-10T04:17:57;5.00;;;3.27;;
4563;SDS011;2294;51.818;8.484;2023-05-10T04:20:24;7.40;;;2.90;;
4563;SDS011;2294;51.818;8.484;2023-05-10T04:22:51;4.03;;;2.30;;
4563;SDS011;2294;51.818;8.484;2023-05-10T04:25:18;7.60;;;2.30;;
4563;SDS011;2294;51.818;8.484;2023-05-10T04:27:45;9.10;;;4.13;;
4563;SDS011;2294;51.818;8.484;2023-05-10T04:30:12;3.03;;;2.30;;
4563;SDS011;2294;51.818;8.484;2023-05-10T04:32:39;2.73;;;2.03;;
4563;SDS011;2294;51.818;8.484;2023-05-10T04:35:08;4.20;;;2.77;;
4563;SDS011;2294;51.818;8.484;2023-05-10T04:37:35;2.40;;;2.20;;
4563;SDS011;2294;51.818;8.484;2023-05-10T04:40:03;2.33;;;2.10;;
4563;SDS011;2294;51.818;8.484;2023-05-10T04:42:31;2.87;;;2.30;;
4563;SDS011;2294;51.818;8.484;2023-05-10T04:44:58;1.97;;;1.77;;
4563;SDS011;2294;51.818;8.484;2023-05-10T04:47:24;3.30;;;2.70;;
4563;SDS011;2294;51.818;8.484;2023-05-10T04:49:51;2.50;;;2.20;;
4563;SDS011;2294;51.818;8.484;2023-05-10T04:52:19;4.40;;;2.93;;
4563;SDS011;2294;51.818;8.484;2023-05-10T04:54:46;3.30;;;2.40;;
4563;SDS011;2294;51.818;8.484;2023-05-10T04:57:13;3.30;;;2.57;;
4563;SDS011;2294;51.818;8.484;2023-05-10T04:59:40;2.87;;;2.67;;
4563;SDS011;2294;51.818;8.484;2023-05-10T05:02:07;4.00;;;3.10;;
4563;SDS011;2294;51.818;8.484;2023-05-10T05:04:34;4.03;;;3.20;;
4563;SDS011;2294;51.818;8.484;2023-05-10T05:07:01;7.00;;;3.63;;
4563;SDS011;2294;51.818;8.484;2023-05-10T05:09:29;5.50;;;3.70;;
4563;SDS011;2294;51.818;8.484;2023-05-10T05:11:57;4.60;;;4.10;;
4563;SDS011;2294;51.818;8.484;2023-05-10T05:14:24;6.00;;;4.87;;
4563;SDS011;2294;51.818;8.484;2023-05-10T05:16:51;7.53;;;5.20;;
4563;SDS011;2294;51.818;8.484;2023-05-10T05:19:18;4.10;;;3.70;;
4563;SDS011;2294;51.818;8.484;2023-05-10T05:21:45;6.53;;;5.03;;
4563;SDS011;2294;51.818;8.484;2023-05-10T05:24:12;10.57;;;5.13;;
4563;SDS011;2294;51.818;8.484;2023-05-10T05:26:40;8.93;;;4.83;;
4563;SDS011;2294;51.818;8.484;2023-05-10T05:29:07;7.30;;;5.20;;
4563;SDS011;2294;51.818;8.484;2023-05-10T05:31:33;6.80;;;4.60;;
4563;SDS011;2294;51.818;8.484;2023-05-10T05:34:00;6.10;;;4.73;;
4563;SDS011;2294;51.818;8.484;2023-05-10T05:36:27;5.83;;;4.70;;
4563;SDS011;2294;51.818;8.484;2023-05-10T05:38:54;4.40;;;2.70;;
4563;SDS011;2294;51.818;8.484;2023-05-10T05:41:22;3.73;;;3.10;;
4563;SDS011;2294;51.818;8.484;2023-05-10T05:43:50;10.93;;;4.10;;
4563;SDS011;2294;51.818;8.484;2023-05-10T05:46:17;5.43;;;3.90;;
4563;SDS011;2294;51.818;8.484;2023-05-10T05:48:44;4.53;;;4.07;;
4563;SDS011;2294;51.818;8.484;2023-05-10T05:51:11;6.07;;;3.10;;
4563;SDS011;2294;51.818;8.484;2023-05-10T05:53:38;8.90;;;4.53;;
4563;SDS011;2294;51.818;8.484;2023-05-10T05:56:05;7.07;;;3.70;;
4563;SDS011;2294;51.818;8.484;2023-05-10T05:58:33;6.27;;;3.37;;
4563;SDS011;2294;51.818;8.484;2023-05-10T06:01:01;7.43;;;3.93;;
4563;SDS011;2294;51.818;8.484;2023-05-10T06:03:28;8.13;;;3.60;;
4563;SDS011;2294;51.818;8.484;2023-05-10T06:05:55;8.50;;;3.57;;
4563;SDS011;2294;51.818;8.484;2023-05-10T06:08:22;10.50;;;4.10;;
4563;SDS011;2294;51.818;8.484;2023-05-10T06:10:49;7.53;;;3.03;;
4563;SDS011;2294;51.818;8.484;2023-05-10T06:13:16;5.80;;;2.33;;
4563;SDS011;2294;51.818;8.484;2023-05-10T06:15:43;4.50;;;2.23;;
4563;SDS011;2294;51.818;8.484;2023-05-10T06:18:11;8.03;;;2.80;;
4563;SDS011;2294;51.818;8.484;2023-05-10T06:20:38;9.67;;;3.10;;
4563;SDS011;2294;51.818;8.484;2023-05-10T06:23:07;2.50;;;2.07;;
4563;SDS011;2294;51.818;8.484;2023-05-10T06:25:33;7.50;;;2.37;;
4563;SDS011;2294;51.818;8.484;2023-05-10T06:28:00;4.93;;;2.60;;
4563;SDS011;2294;51.818;8.484;2023-05-10T06:30:27;4.23;;;2.30;;
4563;SDS011;2294;51.818;8.484;2023-05-10T06:32:54;5.17;;;2.50;;
4563;SDS011;2294;51.818;8.484;2023-05-10T06:35:22;5.30;;;3.07;;
4563;SDS011;2294;51.818;8.484;2023-05-10T06:37:49;5.50;;;2.93;;
4563;SDS011;2294;51.818;8.484;2023-05-10T06:40:17;3.27;;;2.40;;
4563;SDS011;2294;51.818;8.484;2023-05-10T06:42:44;5.47;;;2.70;;
4563;SDS011;2294;51.818;8.484;2023-05-10T06:45:11;3.90;;;2.80;;
4563;SDS011;2294;51.818;8.484;2023-05-10T06:47:39;3.47;;;2.40;;
4563;SDS011;2294;51.818;8.484;2023-05-10T06:50:06;6.33;;;2.70;;
4563;SDS011;2294;51.818;8.484;2023-05-10T06:52:35;3.93;;;2.97;;
4563;SDS011;2294;51.818;8.484;2023-05-10T06:55:02;5.33;;;3.10;;
4563;SDS011;2294;51.818;8.484;2023-05-10T06:57:30;3.67;;;2.87;;
4563;SDS011;2294;51.818;8.484;2023-05-10T06:59:58;4.47;;;3.20;;
4563;SDS011;2294;51.818;8.484;2023-05-10T07:02:26;4.73;;;3.33;;
4563;SDS011;2294;51.818;8.484;2023-05-10T07:04:53;3.77;;;3.43;;
4563;SDS011;2294;51.818;8.484;2023-05-10T07:07:20;6.70;;;4.30;;
4563;SDS011;2294;51.818;8.484;2023-05-10T07:09:48;5.63;;;4.30;;
4563;SDS011;2294;51.818;8.484;2023-05-10T07:12:16;5.70;;;5.00;;
4563;SDS011;2294;51.818;8.484;2023-05-10T07:14:43;8.23;;;6.20;;
4563;SDS011;2294;51.818;8.484;2023-05-10T07:17:10;10.83;;;5.73;;
4563;SDS011;2294;51.818;8.484;2023-05-10T07:19:37;8.37;;;6.23;;
4563;SDS011;2294;51.818;8.484;2023-05-10T07:22:03;10.40;;;7.23;;
4563;SDS011;2294;51.818;8.484;2023-05-10T07:24:31;10.90;;;6.23;;
4563;SDS011;2294;51.818;8.484;2023-05-10T07:26:59;15.53;;;7.23;;
4563;SDS011;2294;51.818;8.484;2023-05-10T07:29:27;8.77;;;6.60;;
4563;SDS011;2294;51.818;8.484;2023-05-10T07:31:54;9.30;;;7.37;;
4563;SDS011;2294;51.818;8.484;2023-05-10T07:34:21;13.60;;;7.30;;
4563;SDS011;2294;51.818;8.484;2023-05-10T07:36:48;11.83;;;8.60;;
4563;SDS011;2294;51.818;8.484;2023-05-10T07:39:15;17.87;;;8.77;;
4563;SDS011;2294;51.818;8.484;2023-05-10T07:41:42;15.70;;;8.33;;
4563;SDS011;2294;51.818;8.484;2023-05-10T07:44:11;10.97;;;7.50;;
4563;SDS011;2294;51.818;8.484;2023-05-10T07:46:38;13.53;;;8.00;;
4563;SDS011;2294;51.818;8.484;2023-05-10T07:49:04;12.20;;;8.57;;
4563;SDS011;2294;51.818;8.484;2023-05-10T07:51:31;11.43;;;8.20;;
4563;SDS011;2294;51.818;8.484;2023-05-10T07:53:58;15.50;;;9.37;;
4563;SDS011;2294;51.818;8.484;2023-05-10T07:56:26;22.40;;;12.00;;
4563;SDS011;2294;51.818;8.484;2023-05-10T07:58:54;19.90;;;12.07;;
4563;SDS011;2294;51.818;8.484;2023-05-10T08:01:23;19.50;;;10.83;;
4563;SDS011;2294;51.818;8.484;2023-05-10T08:03:50;17.90;;;11.57;;
4563;SDS011;2294;51.818;8.484;2023-05-10T08:06:18;18.90;;;10.90;;
4563;SDS011;2294;51.818;8.484;2023-05-10T08:08:46;19.80;;;11.27;;
4563;SDS011;2294;51.818;8.484;2023-05-10T08:11:15;19.40;;;11.67;;
4563;SDS011;2294;51.818;8.484;2023-05-10T08:13:42;19.03;;;11.50;;
4563;SDS011;2294;51.818;8.484;2023-05-10T08:16:09;20.97;;;12.33;;
4563;SDS011;2294;51.818;8.484;2023-05-10T08:18:37;22.80;;;13.57;;
4563;SDS011;2294;51.818;8.484;2023-05-10T08:21:05;20.13;;;13.33;;
4563;SDS011;2294;51.818;8.484;2023-05-10T08:23:33;22.57;;;13.67;;
4563;SDS011;2294;51.818;8.484;2023-05-10T08:26:00;21.17;;;13.37;;
4563;SDS011;2294;51.818;8.484;2023-05-10T08:28:27;17.23;;;11.20;;
4563;SDS011;2294;51.818;8.484;2023-05-10T08:30:53;17.97;;;10.93;;
4563;SDS011;2294;51.818;8.484;2023-05-10T08:33:20;18.23;;;11.47;;
4563;SDS011;2294;51.818;8.484;2023-05-10T08:35:49;14.77;;;10.50;;
4563;SDS011;2294;51.818;8.484;2023-05-10T08:38:15;17.50;;;9.97;;
4563;SDS011;2294;51.818;8.484;2023-05-10T08:40:43;20.33;;;12.80;;
4563;SDS011;2294;51.818;8.484;2023-05-10T08:43:11;16.50;;;11.40;;
4563;SDS011;2294;51.818;8.484;2023-05-10T08:45:40;24.27;;;12.93;;
4563;SDS011;2294;51.818;8.484;2023-05-10T08:48:08;28.47;;;14.33;;
4563;SDS011;2294;51.818;8.484;2023-05-10T08:50:37;19.37;;;12.63;;
4563;SDS011;2294;51.818;8.484;2023-05-10T08:53:08;21.10;;;13.87;;
4563;SDS011;2294;51.818;8.484;2023-05-10T08:55:36;27.50;;;14.67;;
4563;SDS011;2294;51.818;8.484;2023-05-10T08:58:05;23.93;;;14.60;;
4563;SDS011;2294;51.818;8.484;2023-05-10T09:00:32;25.87;;;16.20;;
4563;SDS011;2294;51.818;8.484;2023-05-10T09:03:01;25.87;;;15.13;;
4563;SDS011;2294;51.818;8.484;2023-05-10T09:05:28;25.03;;;15.43;;
4563;SDS011;2294;51.818;8.484;2023-05-10T09:07:55;23.10;;;15.17;;
4563;SDS011;2294;51.818;8.484;2023-05-10T09:10:25;32.83;;;16.93;;
4563;SDS011;2294;51.818;8.484;2023-05-10T09:12:53;27.80;;;16.40;;
4563;SDS011;2294;51.818;8.484;2023-05-10T09:15:22;34.63;;;17.63;;
4563;SDS011;2294;51.818;8.484;2023-05-10T09:17:50;36.97;;;18.20;;
4563;SDS011;2294;51.818;8.484;2023-05-10T09:20:17;24.60;;;16.57;;
4563;SDS011;2294;51.818;8.484;2023-05-10T09:22:44;31.67;;;17.00;;
4563;SDS011;2294;51.818;8.484;2023-05-10T09:25:11;34.60;;;19.37;;
4563;SDS011;2294;51.818;8.484;2023-05-10T09:27:41;29.87;;;17.10;;
4563;SDS011;2294;51.818;8.484;2023-05-10T09:30:10;26.90;;;16.33;;
4563;SDS011;2294;51.818;8.484;2023-05-10T09:32:42;32.13;;;17.40;;
4563;SDS011;2294;51.818;8.484;2023-05-10T09:35:11;28.40;;;16.13;;
4563;SDS011;2294;51.818;8.484;2023-05-10T09:37:39;29.80;;;16.93;;
4563;SDS011;2294;51.818;8.484;2023-05-10T09:40:08;29.40;;;15.17;;
4563;SDS011;2294;51.818;8.484;2023-05-10T09:42:40;32.03;;;18.93;;
4563;SDS011;2294;51.818;8.484;2023-05-10T09:45:08;25.60;;;16.10;;
4563;SDS011;2294;51.818;8.484;2023-05-10T09:47:35;29.93;;;17.43;;
4563;SDS011;2294;51.818;8.484;2023-05-10T09:50:03;27.27;;;17.00;;
4563;SDS011;2294;51.818;8.484;2023-05-10T09:52:30;26.80;;;14.50;;
4563;SDS011;2294;51.818;8.484;2023-05-10T09:55:11;25.47;;;15.40;;
4563;SDS011;2294;51.818;8.484;2023-05-10T09:57:39;26.03;;;15.70;;
4563;SDS011;2294;51.818;8.484;2023-05-10T10:00:07;27.67;;;16.03;;
4563;SDS011;2294;51.818;8.484;2023-05-10T10:02:35;24.80;;;14.50;;
4563;SDS011;2294;51.818;8.484;2023-05-10T10:05:02;26.30;;;13.80;;
4563;SDS011;2294;51.818;8.484;2023-05-10T10:07:29;24.50;;;14.27;;
4563;SDS011;2294;51.818;8.484;2023-05-10T10:09:56;25.23;;;13.17;;
4563;SDS011;2294;51.818;8.484;2023-05-10T10:12:25;17.33;;;10.20;;
4563;SDS011;2294;51.818;8.484;2023-05-10T10:14:55;22.47;;;14.70;;
4563;SDS011;2294;51.818;8.484;2023-05-10T10:17:23;24.00;;;14.40;;
4563;SDS011;2294;51.818;8.484;2023-05-10T10:19:53;24.00;;;13.43;;
4563;SDS011;2294;51.818;8.484;2023-05-10T10:22:21;26.27;;;15.30;;
4563;SDS011;2294;51.818;8.484;2023-05-10T10:24:48;26.20;;;17.23;;
4563;SDS011;2294;51.818;8.484;2023-05-10T10:27:19;22.13;;;13.53;;
4563;SDS011;2294;51.818;8.484;2023-05-10T10:29:56;22.37;;;13.67;;
4563;SDS011;2294;51.818;8.484;2023-05-10T10:32:32;22.77;;;14.17;;
4563;SDS011;2294;51.818;8.484;2023-05-10T10:35:05;29.23;;;15.87;;
4563;SDS011;2294;51.818;8.484;2023-05-10T10:37:43;20.80;;;9.47;;
4563;SDS011;2294;51.818;8.484;2023-05-10T10:40:27;12.67;;;8.20;;
4563;SDS011;2294;51.818;8.484;2023-05-10T10:42:55;14.40;;;7.30;;
4563;SDS011;2294;51.818;8.484;2023-05-10T10:45:24;11.17;;;4.33;;
4563;SDS011;2294;51.818;8.484;2023-05-10T10:50:47;14.70;;;5.97;;
4563;SDS011;2294;51.818;8.484;2023-05-10T10:53:22;9.77;;;6.50;;
4563;SDS011;2294;51.818;8.484;2023-05-10T10:55:55;13.70;;;7.60;;
4563;SDS011;2294;51.818;8.484;2023-05-10T10:58:32;14.17;;;6.70;;
4563;SDS011;2294;51.818;8.484;2023-05-10T11:01:14;12.80;;;7.87;;
4563;SDS011;2294;51.818;8.484;2023-05-10T11:03:54;15.23;;;8.40;;
4563;SDS011;2294;51.818;8.484;2023-05-10T11:06:36;15.37;;;8.87;;
4563;SDS011;2294;51.818;8.484;2023-05-10T11:09:05;13.33;;;9.30;;
4563;SDS011;2294;51.818;8.484;2023-05-10T11:11:32;18.33;;;9.20;;
4563;SDS011;2294;51.818;8.484;2023-05-10T11:14:02;18.43;;;10.70;;
4563;SDS011;2294;51.818;8.484;2023-05-10T11:16:40;26.03;;;11.90;;
4563;SDS011;2294;51.818;8.484;2023-05-10T11:19:09;18.70;;;11.60;;
4563;SDS011;2294;51.818;8.484;2023-05-10T11:21:44;19.33;;;10.70;;
4563;SDS011;2294;51.818;8.484;2023-05-10T11:24:12;20.30;;;9.13;;
4563;SDS011;2294;51.818;8.484;2023-05-10T11:26:40;19.87;;;11.90;;
4563;SDS011;2294;51.818;8.484;2023-05-10T11:29:08;16.80;;;10.80;;
4563;SDS011;2294;51.818;8.484;2023-05-10T11:31:38;18.67;;;10.90;;
4563;SDS011;2294;51.818;8.484;2023-05-10T11:34:08;14.60;;;8.90;;
4563;SDS011;2294;51.818;8.484;2023-05-10T11:36:36;9.93;;;6.00;;
4563;SDS011;2294;51.818;8.484;2023-05-10T11:39:03;7.53;;;5.87;;
4563;SDS011;2294;51.818;8.484;2023-05-10T11:41:31;5.70;;;3.80;;
4563;SDS011;2294;51.818;8.484;2023-05-10T11:43:58;6.77;;;3.63;;
4563;SDS011;2294;51.818;8.484;2023-05-10T11:46:26;5.70;;;2.93;;
4563;SDS011;2294;51.818;8.484;2023-05-10T11:48:57;4.40;;;3.20;;
4563;SDS011;2294;51.818;8.484;2023-05-10T11:51:26;9.50;;;4.37;;
4563;SDS011;2294;51.818;8.484;2023-05-10T11:53:54;5.80;;;3.70;;
4563;SDS011;2294;51.818;8.484;2023-05-10T11:56:22;6.50;;;3.80;;
4563;SDS011;2294;51.818;8.484;2023-05-10T11:58:54;5.43;;;3.33;;
4563;SDS011;2294;51.818;8.484;2023-05-10T12:01:22;8.00;;;3.93;;
4563;SDS011;2294;51.818;8.484;2023-05-10T12:03:50;8.10;;;3.83;;
4563;SDS011;2294;51.818;8.484;2023-05-10T12:06:20;9.57;;;4.00;;
4563;SDS011;2294;51.818;8.484;2023-05-10T12:08:48;6.77;;;4.13;;
4563;SDS011;2294;51.818;8.484;2023-05-10T12:11:17;5.80;;;3.63;;
4563;SDS011;2294;51.818;8.484;2023-05-10T12:13:45;8.47;;;4.57;;
4563;SDS011;2294;51.818;8.484;2023-05-10T12:16:13;6.87;;;4.63;;
4563;SDS011;2294;51.818;8.484;2023-05-10T12:18:42;8.27;;;5.73;;
4563;SDS011;2294;51.818;8.484;2023-05-10T12:21:09;10.93;;;6.60;;
4563;SDS011;2294;51.818;8.484;2023-05-10T12:23:38;16.97;;;7.43;;
4563;SDS011;2294;51.818;8.484;2023-05-10T12:26:05;17.43;;;10.43;;
4563;SDS011;2294;51.818;8.484;2023-05-10T12:28:34;32.90;;;10.10;;
4563;SDS011;2294;51.818;8.484;2023-05-10T12:31:02;15.20;;;9.80;;
4563;SDS011;2294;51.818;8.484;2023-05-10T12:33:35;16.17;;;9.27;;
4563;SDS011;2294;51.818;8.484;2023-05-10T12:36:04;15.90;;;9.70;;
4563;SDS011;2294;51.818;8.484;2023-05-10T12:38:34;17.57;;;8.37;;
4563;SDS011;2294;51.818;8.484;2023-05-10T12:41:06;18.60;;;7.17;;
4563;SDS011;2294;51.818;8.484;2023-05-10T12:43:34;7.43;;;4.80;;
4563;SDS011;2294;51.818;8.484;2023-05-10T12:46:05;6.60;;;3.43;;
4563;SDS011;2294;51.818;8.484;2023-05-10T12:48:33;7.57;;;4.23;;
4563;SDS011;2294;51.818;8.484;2023-05-10T12:51:00;4.83;;;3.23;;
4563;SDS011;2294;51.818;8.484;2023-05-10T12:53:27;6.70;;;3.30;;
4563;SDS011;2294;51.818;8.484;2023-05-10T12:55:54;6.97;;;3.60;;
4563;SDS011;2294;51.818;8.484;2023-05-10T12:58:22;3.70;;;2.80;;
4563;SDS011;2294;51.818;8.484;2023-05-10T13:00:49;4.10;;;3.10;;
4563;SDS011;2294;51.818;8.484;2023-05-10T13:03:17;6.50;;;3.50;;
4563;SDS011;2294;51.818;8.484;2023-05-10T13:05:44;3.50;;;2.80;;
4563;SDS011;2294;51.818;8.484;2023-05-10T13:08:11;4.10;;;2.90;;
4563;SDS011;2294;51.818;8.484;2023-05-10T13:10:38;11.83;;;3.57;;
4563;SDS011;2294;51.818;8.484;2023-05-10T13:13:05;5.90;;;3.93;;
4563;SDS011;2294;51.818;8.484;2023-05-10T13:15:34;8.17;;;4.93;;
4563;SDS011;2294;51.818;8.484;2023-05-10T13:18:01;8.40;;;4.80;;
4563;SDS011;2294;51.818;8.484;2023-05-10T13:20:28;9.93;;;6.60;;
4563;SDS011;2294;51.818;8.484;2023-05-10T13:22:55;12.57;;;6.80;;
4563;SDS011;2294;51.818;8.484;2023-05-10T13:25:22;9.70;;;7.30;;
4563;SDS011;2294;51.818;8.484;2023-05-10T13:27:49;12.27;;;7.70;;
4563;SDS011;2294;51.818;8.484;2023-05-10T13:30:16;13.87;;;7.67;;
4563;SDS011;2294;51.818;8.484;2023-05-10T13:32:44;16.17;;;10.03;;
4563;SDS011;2294;51.818;8.484;2023-05-10T13:35:11;21.47;;;9.80;;
4563;SDS011;2294;51.818;8.484;2023-05-10T13:37:38;18.83;;;11.70;;
4563;SDS011;2294;51.818;8.484;2023-05-10T13:40:05;17.90;;;9.90;;
4563;SDS011;2294;51.818;8.484;2023-05-10T13:42:33;21.03;;;10.50;;
4563;SDS011;2294;51.818;8.484;2023-05-10T13:44:59;14.80;;;10.00;;
4563;SDS011;2294;51.818;8.484;2023-05-10T13:47:27;19.50;;;12.07;;
4563;SDS011;2294;51.818;8.484;2023-05-10T13:49:55;23.87;;;13.40;;
4563;SDS011;2294;51.818;8.484;2023-05-10T13:52:22;23.60;;;13.23;;
4563;SDS011;2294;51.818;8.484;2023-05-10T13:54:49;22.07;;;12.60;;
4563;SDS011;2294;51.818;8.484;2023-05-10T13:57:19;25.27;;;12.90;;
4563;SDS011;2294;51.818;8.484;2023-05-10T13:59:46;26.13;;;15.13;;
4563;SDS011;2294;51.818;8.484;2023-05-10T14:02:13;23.87;;;14.90;;
4563;SDS011;2294;51.818;8.484;2023-05-10T14:04:40;28.63;;;13.63;;
4563;SDS011;2294;51.818;8.484;2023-05-10T14:07:08;25.87;;;14.30;;
4563;SDS011;2294;51.818;8.484;2023-05-10T14:09:35;28.00;;;15.30;;
4563;SDS011;2294;51.818;8.484;2023-05-10T14:12:02;29.30;;;14.80;;
4563;SDS011;2294;51.818;8.484;2023-05-10T14:14:29;24.50;;;14.30;;
4563;SDS011;2294;51.818;8.484;2023-05-10T14:16:56;26.17;;;15.37;;
4563;SDS011;2294;51.818;8.484;2023-05-10T14:19:24;26.80;;;15.07;;
4563;SDS011;2294;51.818;8.484;2023-05-10T14:21:51;25.40;;;14.57;;
4563;SDS011;2294;51.818;8.484;2023-05-10T14:24:20;28.20;;;15.40;;
4563;SDS011;2294;51.818;8.484;2023-05-10T14:26:46;31.73;;;15.30;;
4563;SDS011;2294;51.818;8.484;2023-05-10T14:29:13;27.00;;;15.37;;
4563;SDS011;2294;51.818;8.484;2023-05-10T14:31:40;23.27;;;14.07;;
4563;SDS011;2294;51.818;8.484;2023-05-10T14:34:07;26.80;;;14.03;;
4563;SDS011;2294;51.818;8.484;2023-05-10T14:36:34;29.67;;;15.07;;
4563;SDS011;2294;51.818;8.484;2023-05-10T14:39:01;24.20;;;12.90;;
4563;SDS011;2294;51.818;8.484;2023-05-10T14:41:30;23.70;;;13.60;;
4563;SDS011;2294;51.818;8.484;2023-05-10T14:43:57;21.67;;;12.70;;
4563;SDS011;2294;51.818;8.484;2023-05-10T14:46:24;26.30;;;14.30;;
4563;SDS011;2294;51.818;8.484;2023-05-10T14:48:51;28.83;;;14.07;;
4563;SDS011;2294;51.818;8.484;2023-05-10T14:51:18;23.67;;;14.13;;
4563;SDS011;2294;51.818;8.484;2023-05-10T14:53:46;32.27;;;16.10;;
4563;SDS011;2294;51.818;8.484;2023-05-10T14:56:14;26.57;;;15.67;;
4563;SDS011;2294;51.818;8.484;2023-05-10T14:58:42;24.20;;;14.00;;
4563;SDS011;2294;51.818;8.484;2023-05-10T15:01:09;24.27;;;14.27;;
4563;SDS011;2294;51.818;8.484;2023-05-10T15:03:36;25.00;;;15.07;;
4563;SDS011;2294;51.818;8.484;2023-05-10T15:06:03;26.60;;;14.73;;
4563;SDS011;2294;51.818;8.484;2023-05-10T15:08:30;27.93;;;15.80;;
4563;SDS011;2294;51.818;8.484;2023-05-10T15:10:58;25.93;;;13.70;;
4563;SDS011;2294;51.818;8.484;2023-05-10T15:13:25;21.73;;;12.20;;